createdAt,value
2022-09-24T00:00:13.760Z,15.00
2022-09-24T00:01:16.143Z,14.90
2022-09-24T00:02:13.236Z,14.70
2022-09-24T00:03:13.384Z,14.90
2022-09-24T00:04:28.637Z,14.80
2022-09-24T00:05:13.709Z,14.90
2022-09-24T00:06:13.794Z,15.00
2022-09-24T00:07:13.646Z,14.90
2022-09-24T00:08:14.088Z,15.00
2022-09-24T00:09:13.292Z,14.90
2022-09-24T00:10:13.217Z,14.90
2022-09-24T00:11:13.164Z,14.70
2022-09-24T00:12:13.289Z,14.90
2022-09-24T00:13:13.202Z,14.70
2022-09-24T00:14:13.309Z,14.70
2022-09-24T00:15:13.312Z,14.70
2022-09-24T00:16:13.828Z,14.70
2022-09-24T00:17:14.033Z,14.90
2022-09-24T00:18:12.897Z,15.00
2022-09-24T00:19:13.464Z,14.90
2022-09-24T00:20:14.071Z,14.80
2022-09-24T00:21:13.394Z,14.80
2022-09-24T00:22:13.794Z,14.60
2022-09-24T00:23:13.963Z,14.70
2022-09-24T00:24:12.921Z,14.40
2022-09-24T00:25:12.892Z,14.60
2022-09-24T00:26:12.818Z,14.60
2022-09-24T00:27:13.635Z,14.90
2022-09-24T00:28:13.571Z,14.80
2022-09-24T00:29:13.750Z,14.70
2022-09-24T00:30:13.669Z,14.80
2022-09-24T00:31:13.806Z,14.70
2022-09-24T00:32:13.993Z,14.80
2022-09-24T00:33:13.165Z,14.80
2022-09-24T00:34:13.271Z,14.70
2022-09-24T00:35:13.614Z,14.70
2022-09-24T00:36:13.842Z,14.70
2022-09-24T00:37:13.817Z,14.40
2022-09-24T00:38:13.830Z,14.30
2022-09-24T00:39:13.775Z,14.30
2022-09-24T00:40:13.721Z,14.30
2022-09-24T00:41:14.049Z,14.40
2022-09-24T00:42:13.075Z,14.40
2022-09-24T00:43:13.062Z,14.50
2022-09-24T00:44:13.310Z,14.60
2022-09-24T00:45:13.459Z,14.70
2022-09-24T00:46:13.455Z,14.70
2022-09-24T00:47:13.372Z,14.80
2022-09-24T00:48:13.578Z,14.70
2022-09-24T00:49:13.547Z,14.60
2022-09-24T00:50:13.514Z,14.30
2022-09-24T00:51:13.481Z,14.20
2022-09-24T00:52:13.401Z,14.20
2022-09-24T00:53:13.730Z,14.20
2022-09-24T00:54:13.748Z,14.30
2022-09-24T00:55:13.658Z,14.20
2022-09-24T00:56:14.206Z,14.10
2022-09-24T00:57:13.420Z,14.20
2022-09-24T00:58:13.602Z,14.40
2022-09-24T00:59:24.217Z,14.50
2022-09-24T01:00:13.229Z,14.50
2022-09-24T01:01:13.334Z,14.50
2022-09-24T01:02:13.270Z,14.50
2022-09-24T01:03:13.391Z,14.30
2022-09-24T01:04:14.555Z,14.50
2022-09-24T01:05:13.440Z,14.40
2022-09-24T01:06:13.321Z,14.40
2022-09-24T01:07:13.428Z,14.50
2022-09-24T01:08:13.609Z,14.20
2022-09-24T01:09:13.530Z,14.10
2022-09-24T01:10:13.623Z,14.10
2022-09-24T01:11:13.576Z,14.20
2022-09-24T01:12:13.557Z,14.20
2022-09-24T01:13:13.460Z,14.10
2022-09-24T01:14:13.477Z,14.10
2022-09-24T01:15:13.704Z,14.20
2022-09-24T01:16:13.850Z,14.50
2022-09-24T01:17:12.983Z,14.40
2022-09-24T01:18:12.926Z,14.30
2022-09-24T01:19:13.246Z,14.40
2022-09-24T01:20:13.249Z,14.30
2022-09-24T01:21:13.283Z,14.30
2022-09-24T01:22:13.340Z,14.20
2022-09-24T01:23:13.538Z,14.30
2022-09-24T01:24:13.801Z,14.20
2022-09-24T01:25:13.686Z,14.20
2022-09-24T01:26:13.820Z,14.20
2022-09-24T01:27:14.293Z,14.10
2022-09-24T01:28:13.564Z,14.10
2022-09-24T01:29:13.593Z,14.20
2022-09-24T01:30:13.667Z,14.20
2022-09-24T01:31:13.727Z,14.20
2022-09-24T01:32:13.705Z,14.20
2022-09-24T01:33:13.713Z,14.20
2022-09-24T01:34:14.047Z,14.30
2022-09-24T01:35:13.052Z,14.20
2022-09-24T01:36:13.326Z,14.20
2022-09-24T01:37:13.466Z,14.00
2022-09-24T01:38:13.372Z,14.00
2022-09-24T01:39:13.341Z,14.00
2022-09-24T01:40:13.316Z,14.00
2022-09-24T01:41:13.339Z,14.00
2022-09-24T01:42:13.704Z,14.10
2022-09-24T01:43:13.733Z,14.10
2022-09-24T01:44:13.708Z,14.10
2022-09-24T01:45:13.523Z,14.00
2022-09-24T01:46:13.574Z,14.00
2022-09-24T01:47:13.568Z,14.00
2022-09-24T01:48:13.612Z,14.10
2022-09-24T01:49:13.492Z,14.10
2022-09-24T01:50:13.503Z,14.10
2022-09-24T01:51:13.972Z,14.10
2022-09-24T01:52:13.273Z,14.00
2022-09-24T01:53:23.275Z,14.00
2022-09-24T01:54:13.449Z,13.90
2022-09-24T01:55:13.804Z,13.90
2022-09-24T01:56:13.702Z,13.90
2022-09-24T01:57:13.616Z,13.80
2022-09-24T01:58:13.831Z,13.90
2022-09-24T01:59:14.130Z,13.90
2022-09-24T02:00:12.929Z,14.00
2022-09-24T02:01:12.954Z,14.10
2022-09-24T02:02:12.917Z,14.00
2022-09-24T02:03:13.197Z,14.00
2022-09-24T02:04:13.157Z,14.00
2022-09-24T02:05:13.033Z,13.90
2022-09-24T02:06:13.016Z,13.90
2022-09-24T02:07:13.337Z,13.90
2022-09-24T02:08:13.383Z,14.10
2022-09-24T02:09:13.325Z,14.10
2022-09-24T02:10:13.240Z,14.20
2022-09-24T02:11:13.706Z,14.20
2022-09-24T02:12:14.062Z,14.10
2022-09-24T02:13:13.015Z,14.20
2022-09-24T02:14:13.121Z,14.20
2022-09-24T02:15:13.140Z,14.10
2022-09-24T02:16:13.253Z,14.20
2022-09-24T02:17:13.519Z,14.10
2022-09-24T02:18:13.901Z,14.00
2022-09-24T02:19:13.242Z,14.10
2022-09-24T02:20:13.121Z,14.20
2022-09-24T02:21:28.290Z,14.30
2022-09-24T02:22:13.212Z,14.10
2022-09-24T02:23:13.243Z,14.20
2022-09-24T02:24:13.226Z,14.20
2022-09-24T02:25:13.550Z,14.20
2022-09-24T02:26:13.587Z,14.10
2022-09-24T02:27:14.084Z,14.20
2022-09-24T02:28:13.133Z,14.10
2022-09-24T02:29:13.182Z,14.10
2022-09-24T02:30:13.417Z,14.50
2022-09-24T02:31:13.494Z,14.40
2022-09-24T02:32:13.477Z,14.30
2022-09-24T02:33:13.487Z,14.20
2022-09-24T02:34:13.525Z,14.20
2022-09-24T02:35:13.685Z,14.20
2022-09-24T02:36:13.865Z,14.30
2022-09-24T02:37:14.299Z,14.20
2022-09-24T02:38:13.338Z,14.30
2022-09-24T02:39:13.464Z,14.20
2022-09-24T02:40:15.129Z,14.10
2022-09-24T02:41:13.360Z,14.10
2022-09-24T02:42:13.629Z,14.00
2022-09-24T02:43:13.507Z,14.10
2022-09-24T02:44:13.679Z,14.00
2022-09-24T02:45:13.753Z,14.00
2022-09-24T02:46:13.836Z,14.00
2022-09-24T02:47:13.980Z,14.00
2022-09-24T02:48:28.127Z,13.90
2022-09-24T02:49:13.112Z,14.00
2022-09-24T02:50:13.070Z,14.00
2022-09-24T02:51:13.160Z,14.00
2022-09-24T02:52:13.145Z,14.00
2022-09-24T02:53:13.366Z,13.90
2022-09-24T02:54:13.822Z,14.00
2022-09-24T02:55:15.300Z,14.00
2022-09-24T02:56:13.237Z,14.00
2022-09-24T02:57:13.608Z,14.00
2022-09-24T02:58:13.652Z,14.00
2022-09-24T02:59:13.677Z,14.00
2022-09-24T03:00:13.560Z,13.80
2022-09-24T03:01:13.481Z,13.90
2022-09-24T03:02:13.458Z,13.90
2022-09-24T03:03:13.610Z,13.90
2022-09-24T03:04:13.657Z,13.90
2022-09-24T03:05:13.669Z,13.90
2022-09-24T03:06:13.786Z,13.80
2022-09-24T03:07:13.597Z,13.90
2022-09-24T03:08:13.664Z,14.00
2022-09-24T03:09:13.569Z,14.00
2022-09-24T03:10:13.614Z,14.00
2022-09-24T03:11:18.313Z,14.00
2022-09-24T03:12:13.755Z,14.00
2022-09-24T03:13:13.696Z,14.00
2022-09-24T03:14:13.909Z,14.00
2022-09-24T03:15:12.939Z,14.00
2022-09-24T03:16:23.680Z,14.00
2022-09-24T03:17:13.615Z,14.00
2022-09-24T03:18:13.548Z,14.00
2022-09-24T03:19:13.828Z,14.00
2022-09-24T03:20:13.780Z,14.00
2022-09-24T03:21:13.766Z,14.00
2022-09-24T03:22:13.763Z,14.00
2022-09-24T03:23:14.102Z,14.00
2022-09-24T03:24:13.502Z,13.90
2022-09-24T03:25:13.618Z,13.90
2022-09-24T03:26:13.666Z,13.90
2022-09-24T03:27:13.551Z,13.90
2022-09-24T03:28:13.505Z,13.90
2022-09-24T03:29:13.520Z,13.90
2022-09-24T03:30:14.044Z,13.90
2022-09-24T03:31:13.072Z,14.10
2022-09-24T03:32:13.109Z,13.90
2022-09-24T03:33:13.624Z,13.80
2022-09-24T03:34:13.765Z,13.60
2022-09-24T03:35:13.814Z,13.70
2022-09-24T03:36:13.862Z,13.80
2022-09-24T03:37:13.833Z,13.90
2022-09-24T03:38:13.959Z,13.90
2022-09-24T03:39:12.839Z,13.90
2022-09-24T03:40:13.929Z,13.90
2022-09-24T03:41:12.826Z,13.90
2022-09-24T03:42:13.708Z,13.90
2022-09-24T03:43:13.699Z,13.80
2022-09-24T03:44:13.617Z,13.80
2022-09-24T03:45:13.548Z,13.90
2022-09-24T03:46:13.518Z,13.90
2022-09-24T03:47:13.536Z,13.90
2022-09-24T03:48:13.553Z,13.90
2022-09-24T03:49:13.763Z,13.80
2022-09-24T03:50:13.927Z,13.80
2022-09-24T03:51:12.934Z,13.80
2022-09-24T03:52:13.181Z,13.70
2022-09-24T03:53:15.500Z,13.70
2022-09-24T03:54:13.547Z,13.80
2022-09-24T03:55:13.518Z,13.80
2022-09-24T03:56:13.494Z,13.80
2022-09-24T03:57:13.788Z,13.70
2022-09-24T03:58:13.636Z,13.70
2022-09-24T03:59:13.949Z,13.70
2022-09-24T04:00:12.846Z,13.70
2022-09-24T04:01:13.762Z,13.70
2022-09-24T04:02:13.973Z,13.70
2022-09-24T04:03:13.035Z,13.50
2022-09-24T04:04:12.931Z,13.60
2022-09-24T04:05:12.985Z,13.60
2022-09-24T04:06:12.910Z,13.80
2022-09-24T04:07:12.782Z,13.90
2022-09-24T04:08:13.715Z,13.90
2022-09-24T04:09:14.097Z,13.90
2022-09-24T04:10:13.118Z,13.70
2022-09-24T04:11:12.972Z,13.60
2022-09-24T04:12:12.928Z,13.60
2022-09-24T04:13:12.897Z,13.60
2022-09-24T04:14:17.943Z,13.60
2022-09-24T04:15:12.880Z,13.60
2022-09-24T04:16:13.878Z,13.60
2022-09-24T04:17:13.166Z,13.50
2022-09-24T04:18:13.073Z,13.60
2022-09-24T04:19:13.027Z,13.80
2022-09-24T04:20:13.127Z,13.70
2022-09-24T04:21:13.006Z,13.90
2022-09-24T04:22:13.347Z,13.90
2022-09-24T04:23:13.245Z,13.90
2022-09-24T04:24:13.169Z,13.70
2022-09-24T04:25:14.965Z,13.60
2022-09-24T04:26:13.284Z,13.50
2022-09-24T04:27:13.072Z,13.50
2022-09-24T04:28:13.693Z,13.60
2022-09-24T04:29:13.728Z,13.60
2022-09-24T04:30:13.771Z,13.60
2022-09-24T04:31:13.814Z,13.60
2022-09-24T04:32:13.680Z,13.60
2022-09-24T04:33:13.651Z,13.60
2022-09-24T04:34:13.712Z,13.50
2022-09-24T04:35:18.626Z,13.50
2022-09-24T04:36:13.586Z,13.50
2022-09-24T04:37:13.492Z,13.50
2022-09-24T04:38:14.996Z,13.40
2022-09-24T04:39:12.990Z,13.40
2022-09-24T04:40:13.084Z,13.40
2022-09-24T04:41:13.317Z,13.40
2022-09-24T04:42:13.399Z,13.30
2022-09-24T04:43:13.461Z,13.40
2022-09-24T04:44:13.445Z,13.40
2022-09-24T04:45:13.750Z,13.40
2022-09-24T04:46:14.048Z,13.30
2022-09-24T04:47:12.930Z,13.30
2022-09-24T04:48:13.263Z,13.30
2022-09-24T04:49:13.293Z,13.30
2022-09-24T04:50:13.197Z,13.30
2022-09-24T04:51:13.087Z,13.30
2022-09-24T04:52:13.149Z,13.30
2022-09-24T04:53:12.968Z,13.30
2022-09-24T04:54:12.855Z,13.20
2022-09-24T04:55:13.739Z,13.20
2022-09-24T04:56:13.621Z,13.30
2022-09-24T04:57:13.611Z,13.30
2022-09-24T04:58:13.628Z,13.30
2022-09-24T04:59:13.600Z,13.30
2022-09-24T05:00:13.611Z,13.30
2022-09-24T05:01:13.956Z,13.30
2022-09-24T05:02:13.361Z,13.30
2022-09-24T05:03:13.430Z,13.20
2022-09-24T05:04:13.700Z,13.30
2022-09-24T05:05:23.786Z,13.20
2022-09-24T05:06:14.164Z,13.20
2022-09-24T05:07:13.262Z,13.20
2022-09-24T05:08:13.363Z,13.30
2022-09-24T05:09:13.776Z,13.40
2022-09-24T05:10:13.111Z,13.60
2022-09-24T05:11:13.032Z,13.70
2022-09-24T05:12:13.230Z,13.70
2022-09-24T05:13:13.122Z,13.70
2022-09-24T05:14:12.999Z,13.70
2022-09-24T05:15:12.903Z,13.50
2022-09-24T05:16:12.861Z,13.40
2022-09-24T05:17:12.980Z,13.30
2022-09-24T05:18:13.016Z,13.20
2022-09-24T05:19:12.940Z,13.30
2022-09-24T05:20:13.075Z,13.20
2022-09-24T05:21:13.213Z,13.20
2022-09-24T05:22:13.138Z,13.20
2022-09-24T05:23:13.127Z,13.20
2022-09-24T05:24:13.369Z,13.20
2022-09-24T05:25:13.257Z,13.20
2022-09-24T05:26:13.222Z,13.20
2022-09-24T05:27:13.294Z,13.20
2022-09-24T05:28:13.221Z,13.20
2022-09-24T05:29:13.168Z,13.10
2022-09-24T05:30:13.384Z,13.10
2022-09-24T05:31:13.588Z,13.10
2022-09-24T05:32:13.501Z,13.10
2022-09-24T05:33:13.867Z,13.10
2022-09-24T05:34:13.919Z,13.10
2022-09-24T05:35:12.962Z,13.10
2022-09-24T05:36:12.921Z,13.10
2022-09-24T05:37:12.774Z,13.00
2022-09-24T05:38:14.055Z,13.00
2022-09-24T05:39:13.130Z,13.00
2022-09-24T05:40:13.517Z,13.00
2022-09-24T05:41:13.660Z,13.00
2022-09-24T05:42:13.528Z,13.00
2022-09-24T05:43:13.472Z,13.00
2022-09-24T05:44:13.351Z,13.00
2022-09-24T05:45:13.561Z,13.00
2022-09-24T05:46:14.136Z,13.00
2022-09-24T05:47:13.262Z,13.00
2022-09-24T05:48:13.297Z,13.00
2022-09-24T05:49:13.415Z,13.00
2022-09-24T05:50:13.513Z,13.00
2022-09-24T05:51:14.234Z,13.20
2022-09-24T05:52:13.241Z,13.30
2022-09-24T05:53:13.442Z,13.40
2022-09-24T05:54:13.403Z,13.40
2022-09-24T05:55:13.303Z,13.40
2022-09-24T05:56:13.626Z,13.40
2022-09-24T05:57:13.842Z,13.20
2022-09-24T05:58:13.664Z,13.20
2022-09-24T05:59:13.589Z,13.20
2022-09-24T06:00:13.623Z,13.20
2022-09-24T06:01:13.565Z,13.20
2022-09-24T06:02:14.249Z,13.20
2022-09-24T06:03:13.947Z,13.10
2022-09-24T06:04:13.356Z,13.10
2022-09-24T06:05:13.281Z,13.20
2022-09-24T06:06:13.437Z,13.30
2022-09-24T06:07:13.278Z,13.30
2022-09-24T06:08:13.287Z,13.30
2022-09-24T06:09:13.206Z,13.20
2022-09-24T06:10:13.428Z,13.20
2022-09-24T06:11:13.552Z,13.20
2022-09-24T06:12:13.546Z,13.30
2022-09-24T06:13:13.639Z,13.40
2022-09-24T06:14:14.398Z,13.30
2022-09-24T06:15:13.355Z,13.30
2022-09-24T06:16:13.398Z,13.30
2022-09-24T06:17:13.809Z,13.40
2022-09-24T06:18:13.724Z,13.40
2022-09-24T06:19:14.095Z,13.40
2022-09-24T06:20:13.233Z,13.50
2022-09-24T06:21:13.669Z,13.50
2022-09-24T06:22:13.632Z,13.50
2022-09-24T06:23:13.903Z,13.50
2022-09-24T06:24:13.192Z,13.60
2022-09-24T06:25:13.245Z,13.50
2022-09-24T06:26:13.183Z,13.60
2022-09-24T06:27:13.252Z,13.60
2022-09-24T06:28:13.283Z,13.70
2022-09-24T06:29:13.433Z,13.70
2022-09-24T06:30:14.094Z,13.70
2022-09-24T06:31:13.007Z,13.70
2022-09-24T06:32:12.976Z,13.60
2022-09-24T06:33:12.984Z,13.50
2022-09-24T06:34:12.820Z,13.50
2022-09-24T06:35:13.834Z,13.60
2022-09-24T06:36:13.723Z,13.70
2022-09-24T06:37:13.743Z,13.80
2022-09-24T06:38:13.791Z,13.90
2022-09-24T06:39:13.813Z,13.90
2022-09-24T06:40:13.843Z,14.00
2022-09-24T06:41:14.161Z,14.00
2022-09-24T06:42:13.639Z,14.00
2022-09-24T06:43:13.716Z,14.10
2022-09-24T06:44:14.493Z,14.10
2022-09-24T06:45:13.534Z,14.10
2022-09-24T06:46:13.439Z,14.20
2022-09-24T06:47:13.393Z,14.20
2022-09-24T06:48:13.222Z,14.10
2022-09-24T06:50:18.534Z,14.10
2022-09-24T06:51:13.666Z,14.30
2022-09-24T06:52:13.921Z,14.40
2022-09-24T06:53:12.879Z,14.40
2022-09-24T06:54:14.255Z,14.40
2022-09-24T06:55:15.539Z,14.40
2022-09-24T06:56:18.681Z,14.40
2022-09-24T06:57:13.814Z,14.30
2022-09-24T06:58:13.855Z,14.40
2022-09-24T06:59:13.725Z,14.50
2022-09-24T07:00:14.054Z,14.20
2022-09-24T07:01:13.076Z,14.50
2022-09-24T07:02:13.133Z,14.40
2022-09-24T07:03:13.210Z,14.60
2022-09-24T07:04:13.310Z,14.50
2022-09-24T07:05:13.425Z,14.60
2022-09-24T07:06:13.311Z,14.60
2022-09-24T07:07:13.209Z,14.60
2022-09-24T07:08:13.169Z,14.70
2022-09-24T07:09:13.054Z,14.70
2022-09-24T07:10:13.099Z,14.70
2022-09-24T07:11:12.965Z,14.60
2022-09-24T07:12:12.954Z,14.60
2022-09-24T07:13:13.250Z,14.60
2022-09-24T07:14:14.733Z,14.70
2022-09-24T07:15:13.789Z,14.60
2022-09-24T07:16:13.996Z,14.50
2022-09-24T07:17:14.298Z,14.40
2022-09-24T07:18:13.242Z,14.40
2022-09-24T07:19:13.297Z,14.50
2022-09-24T07:20:13.371Z,14.60
2022-09-24T07:21:13.812Z,14.50
2022-09-24T07:22:14.146Z,14.60
2022-09-24T07:23:13.058Z,14.70
2022-09-24T07:24:13.030Z,14.80
2022-09-24T07:25:13.002Z,14.70
2022-09-24T07:26:13.030Z,14.60
2022-09-24T07:27:13.268Z,14.60
2022-09-24T07:28:13.333Z,14.70
2022-09-24T07:29:13.546Z,14.70
2022-09-24T07:30:18.814Z,14.90
2022-09-24T07:31:15.070Z,15.00
2022-09-24T07:32:13.718Z,14.90
2022-09-24T07:33:13.837Z,14.90
2022-09-24T07:34:13.859Z,15.20
2022-09-24T07:35:13.754Z,15.20
2022-09-24T07:36:13.941Z,15.10
2022-09-24T07:37:12.792Z,15.10
2022-09-24T07:38:13.936Z,15.30
2022-09-24T07:39:12.983Z,15.10
2022-09-24T07:40:13.416Z,15.20
2022-09-24T07:41:13.335Z,15.20
2022-09-24T07:42:13.614Z,15.50
2022-09-24T07:43:14.399Z,15.60
2022-09-24T07:44:13.513Z,15.60
2022-09-24T07:45:13.743Z,15.70
2022-09-24T07:46:13.657Z,15.90
2022-09-24T07:47:15.759Z,15.90
2022-09-24T07:48:13.051Z,15.90
2022-09-24T07:49:13.105Z,15.90
2022-09-24T07:50:13.431Z,15.90
2022-09-24T07:51:13.810Z,16.10
2022-09-24T07:52:13.760Z,16.30
2022-09-24T07:53:13.817Z,16.10
2022-09-24T07:54:17.048Z,16.20
2022-09-24T07:55:13.609Z,16.30
2022-09-24T07:56:13.539Z,16.40
2022-09-24T07:57:13.798Z,16.00
2022-09-24T07:58:14.155Z,16.40
2022-09-24T07:59:18.305Z,16.70
2022-09-24T08:00:13.403Z,16.40
2022-09-24T08:01:13.855Z,16.40
2022-09-24T08:02:13.501Z,16.30
2022-09-24T08:03:13.604Z,16.50
2022-09-24T08:04:13.672Z,16.60
2022-09-24T08:05:13.691Z,16.30
2022-09-24T08:06:13.656Z,16.00
2022-09-24T08:07:13.913Z,16.30
2022-09-24T08:08:13.325Z,16.70
2022-09-24T08:09:13.246Z,16.70
2022-09-24T08:10:13.501Z,16.70
2022-09-24T08:11:13.386Z,16.50
2022-09-24T08:12:13.482Z,16.50
2022-09-24T08:13:13.421Z,16.50
2022-09-24T08:14:13.426Z,16.50
2022-09-24T08:15:13.393Z,16.90
2022-09-24T08:16:13.564Z,17.00
2022-09-24T08:17:13.775Z,16.80
2022-09-24T08:18:13.751Z,16.90
2022-09-24T08:19:14.147Z,17.40
2022-09-24T08:20:13.126Z,17.40
2022-09-24T08:21:13.070Z,17.70
2022-09-24T08:22:13.049Z,17.40
2022-09-24T08:23:12.878Z,17.30
2022-09-24T08:24:14.207Z,17.10
2022-09-24T08:25:13.073Z,16.70
2022-09-24T08:26:13.247Z,16.60
2022-09-24T08:27:17.143Z,17.20
2022-09-24T08:28:13.358Z,17.20
2022-09-24T08:29:13.211Z,16.90
2022-09-24T08:30:13.135Z,17.20
2022-09-24T08:31:14.654Z,17.10
2022-09-24T08:32:13.814Z,16.80
2022-09-24T08:33:18.662Z,16.70
2022-09-24T08:34:13.603Z,16.70
2022-09-24T08:35:13.705Z,17.20
2022-09-24T08:36:13.679Z,17.30
2022-09-24T08:37:13.705Z,17.60
2022-09-24T08:38:14.043Z,17.40
2022-09-24T08:39:18.285Z,17.50
2022-09-24T08:40:16.694Z,17.70
2022-09-24T08:41:13.724Z,17.20
2022-09-24T08:42:13.842Z,17.30
2022-09-24T08:43:13.805Z,17.20
2022-09-24T08:44:13.758Z,17.40
2022-09-24T08:45:13.934Z,17.20
2022-09-24T08:46:13.216Z,17.50
2022-09-24T08:47:13.432Z,17.60
2022-09-24T08:48:13.498Z,17.60
2022-09-24T08:49:13.718Z,17.40
2022-09-24T08:50:14.642Z,17.30
2022-09-24T08:51:13.948Z,17.10
2022-09-24T08:52:12.980Z,17.20
2022-09-24T08:53:13.033Z,17.40
2022-09-24T08:54:13.036Z,17.50
2022-09-24T08:55:12.887Z,17.50
2022-09-24T08:56:12.844Z,17.50
2022-09-24T08:57:15.550Z,17.50
2022-09-24T08:58:13.533Z,17.80
2022-09-24T08:59:13.784Z,17.80
2022-09-24T09:00:13.641Z,17.80
2022-09-24T09:01:13.631Z,17.70
2022-09-24T09:02:14.077Z,17.90
2022-09-24T09:03:13.250Z,17.90
2022-09-24T09:04:14.822Z,17.80
2022-09-24T09:05:14.204Z,17.70
2022-09-24T09:06:18.767Z,17.70
2022-09-24T09:07:14.078Z,17.60
2022-09-24T09:08:41.387Z,17.10
2022-09-24T09:09:13.285Z,17.20
2022-09-24T09:10:13.465Z,17.20
2022-09-24T09:11:13.850Z,16.90
2022-09-24T09:12:13.725Z,17.00
2022-09-24T09:13:13.901Z,17.20
2022-09-24T09:14:13.041Z,17.00
2022-09-24T09:15:12.941Z,16.80
2022-09-24T09:16:12.838Z,17.00
2022-09-24T09:17:13.821Z,17.10
2022-09-24T09:18:14.034Z,17.20
2022-09-24T09:19:13.229Z,17.20
2022-09-24T09:20:14.489Z,17.30
2022-09-24T09:21:13.634Z,16.90
2022-09-24T09:22:13.444Z,17.40
2022-09-24T09:23:13.383Z,17.70
2022-09-24T09:24:13.256Z,17.60
2022-09-24T09:25:13.272Z,17.90
2022-09-24T09:26:13.113Z,18.00
2022-09-24T09:27:12.963Z,18.20
2022-09-24T09:28:12.847Z,18.20
2022-09-24T09:29:18.811Z,18.40
2022-09-24T09:30:14.433Z,18.50
2022-09-24T09:31:15.178Z,18.20
2022-09-24T09:32:13.170Z,18.10
2022-09-24T09:33:13.089Z,17.90
2022-09-24T09:34:13.696Z,18.10
2022-09-24T09:35:13.681Z,18.30
2022-09-24T09:36:13.731Z,18.10
2022-09-24T09:37:13.792Z,18.00
2022-09-24T09:38:15.698Z,17.50
2022-09-24T09:39:14.995Z,17.30
2022-09-24T09:40:14.942Z,16.90
2022-09-24T09:41:14.404Z,16.80
2022-09-24T09:42:13.701Z,17.10
2022-09-24T09:43:14.722Z,17.40
2022-09-24T09:44:14.024Z,17.60
2022-09-24T09:45:13.453Z,17.70
2022-09-24T09:46:13.796Z,17.40
2022-09-24T09:47:14.654Z,17.30
2022-09-24T09:48:13.700Z,17.40
2022-09-24T09:49:15.303Z,17.50
2022-09-24T09:50:13.233Z,17.30
2022-09-24T09:51:13.717Z,16.90
2022-09-24T09:52:13.718Z,16.70
2022-09-24T09:53:13.891Z,16.70
2022-09-24T09:54:15.460Z,16.80
2022-09-24T09:55:20.085Z,16.90
2022-09-24T09:56:13.532Z,17.20
2022-09-24T09:57:13.480Z,17.20
2022-09-24T09:58:13.503Z,17.40
2022-09-24T09:59:13.634Z,17.90
2022-09-24T10:00:15.744Z,17.80
2022-09-24T10:01:18.938Z,17.90
2022-09-24T10:02:13.311Z,18.20
2022-09-24T10:03:13.588Z,18.30
2022-09-24T10:04:13.907Z,18.20
2022-09-24T10:05:17.642Z,17.90
2022-09-24T10:06:13.234Z,18.10
2022-09-24T10:07:13.611Z,18.30
2022-09-24T10:08:14.936Z,18.30
2022-09-24T10:09:13.294Z,17.80
2022-09-24T10:10:13.255Z,18.00
2022-09-24T10:11:13.284Z,18.30
2022-09-24T10:12:13.745Z,17.70
2022-09-24T10:13:14.954Z,17.60
2022-09-24T10:14:14.566Z,17.70
2022-09-24T10:15:13.432Z,17.50
2022-09-24T10:16:13.394Z,17.80
2022-09-24T10:17:13.500Z,17.80
2022-09-24T10:18:14.964Z,18.10
2022-09-24T10:19:12.868Z,17.60
2022-09-24T10:20:14.005Z,17.70
2022-09-24T10:21:14.672Z,17.40
2022-09-24T10:22:13.535Z,17.50
2022-09-24T10:23:13.752Z,17.50
2022-09-24T10:24:14.461Z,17.60
2022-09-24T10:25:13.738Z,17.40
2022-09-24T10:26:13.850Z,17.70
2022-09-24T10:27:15.716Z,17.90
2022-09-24T10:28:14.207Z,17.90
2022-09-24T10:29:14.496Z,17.90
2022-09-24T10:30:15.748Z,17.70
2022-09-24T10:31:13.763Z,17.70
2022-09-24T10:32:13.954Z,17.60
2022-09-24T10:33:13.171Z,17.90
2022-09-24T10:34:13.371Z,18.10
2022-09-24T10:35:13.630Z,18.10
2022-09-24T10:36:13.948Z,18.20
2022-09-24T10:37:13.211Z,18.30
2022-09-24T10:38:13.153Z,18.20
2022-09-24T10:39:15.764Z,17.80
2022-09-24T10:40:15.551Z,18.10
2022-09-24T10:41:13.660Z,18.20
2022-09-24T10:42:13.671Z,18.40
2022-09-24T10:43:13.662Z,18.60
2022-09-24T10:44:13.870Z,18.70
2022-09-24T10:45:14.172Z,18.50
2022-09-24T10:46:13.713Z,18.20
2022-09-24T10:47:13.653Z,18.20
2022-09-24T10:48:14.192Z,18.40
2022-09-24T10:49:14.772Z,18.80
2022-09-24T10:50:14.019Z,18.50
2022-09-24T10:51:18.140Z,18.40
2022-09-24T10:52:13.428Z,18.30
2022-09-24T10:53:13.527Z,18.70
2022-09-24T10:54:14.241Z,18.60
2022-09-24T10:55:13.185Z,19.00
2022-09-24T10:56:13.327Z,19.20
2022-09-24T10:57:17.272Z,19.20
2022-09-24T10:58:13.151Z,19.40
2022-09-24T10:59:16.629Z,19.50
2022-09-24T11:00:13.906Z,19.50
2022-09-24T11:01:14.439Z,18.70
2022-09-24T11:02:14.397Z,18.30
2022-09-24T11:03:18.222Z,18.20
2022-09-24T11:04:13.310Z,18.50
2022-09-24T11:05:15.000Z,18.70
2022-09-24T11:06:15.678Z,18.60
2022-09-24T11:07:13.530Z,18.80
2022-09-24T11:08:16.640Z,18.80
2022-09-24T11:09:15.113Z,18.50
2022-09-24T11:10:13.104Z,18.40
2022-09-24T11:11:13.306Z,18.30
2022-09-24T11:12:14.364Z,18.10
2022-09-24T11:13:16.246Z,18.30
2022-09-24T11:14:13.218Z,18.30
2022-09-24T11:15:14.303Z,18.60
2022-09-24T11:16:13.373Z,18.30
2022-09-24T11:17:13.564Z,18.60
2022-09-24T11:18:13.584Z,18.50
2022-09-24T11:19:15.168Z,18.80
2022-09-24T11:20:14.927Z,18.90
2022-09-24T11:21:12.972Z,18.60
2022-09-24T11:22:13.143Z,18.50
2022-09-24T11:23:13.014Z,18.80
2022-09-24T11:24:12.970Z,18.80
2022-09-24T11:25:12.945Z,19.00
2022-09-24T11:26:18.041Z,19.70
2022-09-24T11:27:12.991Z,19.60
2022-09-24T11:28:13.036Z,19.20
2022-09-24T11:29:13.148Z,19.50
2022-09-24T11:30:13.098Z,20.10
2022-09-24T11:31:14.120Z,19.70
2022-09-24T11:32:15.610Z,19.60
2022-09-24T11:33:22.127Z,20.00
2022-09-24T11:34:16.992Z,19.70
2022-09-24T11:35:16.813Z,19.50
2022-09-24T11:36:15.283Z,19.00
2022-09-24T11:37:13.470Z,19.00
2022-09-24T11:38:15.801Z,18.90
2022-09-24T11:39:19.345Z,19.40
2022-09-24T11:40:14.491Z,19.30
2022-09-24T11:41:15.097Z,19.30
2022-09-24T11:42:12.995Z,19.20
2022-09-24T11:43:13.007Z,18.40
2022-09-24T11:44:13.091Z,18.30
2022-09-24T11:45:13.169Z,18.40
2022-09-24T11:46:13.302Z,18.40
2022-09-24T11:47:13.851Z,18.00
2022-09-24T11:48:16.569Z,17.60
2022-09-24T11:49:14.209Z,17.70
2022-09-24T11:50:15.166Z,18.10
2022-09-24T11:51:13.397Z,17.70
2022-09-24T11:52:13.472Z,18.00
2022-09-24T11:53:13.841Z,18.30
2022-09-24T11:54:16.039Z,18.00
2022-09-24T11:55:14.800Z,18.30
2022-09-24T11:56:15.112Z,18.40
2022-09-24T11:57:13.007Z,18.40
2022-09-24T11:58:14.804Z,18.70
2022-09-24T11:59:16.285Z,18.70
2022-09-24T12:00:14.689Z,18.70
2022-09-24T12:01:14.838Z,18.70
2022-09-24T12:02:14.793Z,18.50
2022-09-24T12:03:15.656Z,18.40
2022-09-24T12:04:13.713Z,18.10
2022-09-24T12:05:13.864Z,17.60
2022-09-24T12:06:15.564Z,17.50
2022-09-24T12:07:15.051Z,17.10
2022-09-24T12:08:13.308Z,17.00
2022-09-24T12:09:13.575Z,17.00
2022-09-24T12:10:13.576Z,17.10
2022-09-24T12:11:33.461Z,17.00
2022-09-24T12:13:29.471Z,17.00
2022-09-24T12:14:22.886Z,17.30
2022-09-24T12:15:32.331Z,17.30
2022-09-24T12:16:14.849Z,17.00
2022-09-24T12:17:13.039Z,16.90
2022-09-24T12:18:13.223Z,17.10
2022-09-24T12:19:13.255Z,17.20
2022-09-24T12:20:14.797Z,16.90
2022-09-24T12:21:14.028Z,17.10
2022-09-24T12:22:13.065Z,17.60
2022-09-24T12:23:13.008Z,17.50
2022-09-24T12:24:13.317Z,17.20
2022-09-24T12:25:15.005Z,17.10
2022-09-24T12:26:13.361Z,17.40
2022-09-24T12:27:13.569Z,17.30
2022-09-24T12:28:13.719Z,17.20
2022-09-24T12:29:13.575Z,17.40
2022-09-24T12:30:13.445Z,17.40
2022-09-24T12:31:13.391Z,17.20
2022-09-24T12:32:13.655Z,17.20
2022-09-24T12:33:13.744Z,17.10
2022-09-24T12:34:13.713Z,16.90
2022-09-24T12:35:13.664Z,16.70
2022-09-24T12:36:15.091Z,16.60
2022-09-24T12:37:14.414Z,16.60
2022-09-24T12:38:14.762Z,16.90
2022-09-24T12:39:13.974Z,16.90
2022-09-24T12:40:12.912Z,17.10
2022-09-24T12:41:13.329Z,17.10
2022-09-24T12:42:13.196Z,17.10
2022-09-24T12:43:14.639Z,17.30
2022-09-24T12:44:16.152Z,17.20
2022-09-24T12:45:15.650Z,17.30
2022-09-24T12:46:13.984Z,16.80
2022-09-24T12:47:19.069Z,17.00
2022-09-24T12:48:13.581Z,16.80
2022-09-24T12:49:13.497Z,16.80
2022-09-24T12:50:14.410Z,17.10
2022-09-24T12:51:14.088Z,17.00
2022-09-24T12:52:13.328Z,17.00
2022-09-24T12:53:13.471Z,16.90
2022-09-24T12:54:13.653Z,16.90